createdAt,value
2017-11-04T00:00:11.647Z,6.05
2017-11-04T00:01:11.513Z,6.07
2017-11-04T00:02:10.960Z,6.05
2017-11-04T00:03:11.352Z,6.01
2017-11-04T00:04:10.731Z,5.97
2017-11-04T00:05:10.558Z,5.94
2017-11-04T00:06:11.187Z,5.93
2017-11-04T00:07:10.868Z,5.94
2017-11-04T00:08:10.251Z,6.02
2017-11-04T00:09:10.492Z,6.08
2017-11-04T00:10:11.231Z,6.05
2017-11-04T00:11:11.060Z,6.04
2017-11-04T00:12:10.800Z,6.01
2017-11-04T00:13:11.221Z,5.97
2017-11-04T00:14:10.898Z,5.97
2017-11-04T00:15:11.693Z,5.94
2017-11-04T00:16:11.176Z,5.91
2017-11-04T00:17:10.399Z,5.93
2017-11-04T00:18:10.554Z,5.90
2017-11-04T00:19:10.829Z,5.91
2017-11-04T00:20:11.466Z,5.91
2017-11-04T00:21:11.835Z,5.87
2017-11-04T00:22:11.135Z,5.87
2017-11-04T00:23:10.599Z,5.87
2017-11-04T00:24:10.509Z,5.90
2017-11-04T00:25:10.900Z,5.87
2017-11-04T00:26:10.664Z,5.86
2017-11-04T00:27:10.912Z,5.86
2017-11-04T00:28:11.603Z,5.84
2017-11-04T00:29:11.066Z,5.89
2017-11-04T00:30:10.545Z,5.89
2017-11-04T00:31:11.087Z,5.89
2017-11-04T00:32:10.198Z,5.87
2017-11-04T00:33:10.202Z,5.89
2017-11-04T00:34:10.500Z,5.89
2017-11-04T00:35:11.065Z,5.87
2017-11-04T00:36:10.789Z,5.86
2017-11-04T00:37:11.760Z,5.87
2017-11-04T00:38:11.384Z,5.90
2017-11-04T00:39:10.531Z,5.93
2017-11-04T00:40:10.921Z,5.91
2017-11-04T00:41:10.324Z,5.89
2017-11-04T00:42:10.829Z,5.89
2017-11-04T00:43:10.517Z,5.93
2017-11-04T00:44:10.344Z,5.90
2017-11-04T00:45:10.586Z,5.90
2017-11-04T00:46:10.891Z,5.93
2017-11-04T00:47:10.245Z,5.93
2017-11-04T00:48:11.215Z,5.90
2017-11-04T00:49:11.065Z,5.91
2017-11-04T00:50:10.677Z,5.93
2017-11-04T00:51:11.129Z,5.93
2017-11-04T00:52:10.494Z,5.89
2017-11-04T00:53:11.164Z,5.84
2017-11-04T00:54:11.002Z,5.89
2017-11-04T00:55:10.384Z,5.90
2017-11-04T00:56:10.894Z,5.86
2017-11-04T00:57:10.623Z,5.86
2017-11-04T00:58:11.238Z,5.86
2017-11-04T00:59:12.209Z,5.86
2017-11-04T01:00:12.100Z,5.87
2017-11-04T01:01:11.992Z,5.91
2017-11-04T01:02:11.804Z,5.90
2017-11-04T01:03:13.002Z,5.86
2017-11-04T01:04:12.279Z,5.84
2017-11-04T01:05:11.316Z,5.87
2017-11-04T01:06:12.403Z,5.84
2017-11-04T01:07:12.096Z,5.82
2017-11-04T01:08:13.540Z,5.80
2017-11-04T01:09:13.733Z,5.82
2017-11-04T01:10:13.529Z,5.83
2017-11-04T01:11:12.979Z,5.80
2017-11-04T01:12:14.423Z,5.80
2017-11-04T01:13:12.005Z,5.83
2017-11-04T01:14:12.626Z,5.86
2017-11-04T01:15:14.988Z,5.83
2017-11-04T01:16:12.473Z,5.86
2017-11-04T01:17:13.361Z,5.84
2017-11-04T01:18:13.874Z,5.84
2017-11-04T01:19:14.176Z,5.82
2017-11-04T01:20:13.920Z,5.82
2017-11-04T01:21:14.916Z,5.82
2017-11-04T01:22:15.707Z,5.80
2017-11-04T01:23:12.869Z,5.82
2017-11-04T01:24:14.877Z,5.80
2017-11-04T01:25:13.239Z,5.80
2017-11-04T01:26:12.440Z,5.80
2017-11-04T01:27:14.159Z,5.82
2017-11-04T01:28:12.094Z,5.79
2017-11-04T01:29:12.749Z,5.73
2017-11-04T01:30:12.641Z,5.69
2017-11-04T01:31:15.209Z,5.69
2017-11-04T01:32:12.285Z,5.69
2017-11-04T01:33:14.087Z,5.72
2017-11-04T01:34:12.381Z,5.73
2017-11-04T01:35:10.184Z,5.76
2017-11-04T01:36:10.159Z,5.75
2017-11-04T01:37:10.810Z,5.75
2017-11-04T01:38:11.197Z,5.73
2017-11-04T01:39:10.651Z,5.79
2017-11-04T01:40:10.521Z,5.79
2017-11-04T01:41:10.598Z,5.83
2017-11-04T01:42:10.938Z,5.83
2017-11-04T01:43:10.350Z,5.87
2017-11-04T01:44:10.197Z,5.89
2017-11-04T01:45:10.480Z,5.87
2017-11-04T01:46:11.470Z,5.89
2017-11-04T01:47:10.634Z,5.87
2017-11-04T01:48:10.824Z,5.89
2017-11-04T01:49:11.727Z,5.87
2017-11-04T01:50:11.629Z,5.87
2017-11-04T01:51:11.972Z,5.89
2017-11-04T01:52:12.653Z,5.87
2017-11-04T01:53:13.719Z,5.87
2017-11-04T01:54:11.686Z,5.83
2017-11-04T01:55:12.804Z,5.82
2017-11-04T01:56:11.428Z,5.79
2017-11-04T01:57:10.872Z,5.79
2017-11-04T01:58:11.334Z,5.79
2017-11-04T01:59:11.549Z,5.72
2017-11-04T02:00:11.006Z,5.71
2017-11-04T02:01:10.475Z,5.68
2017-11-04T02:02:10.774Z,5.68
2017-11-04T02:03:10.983Z,5.66
2017-11-04T02:04:11.447Z,5.66
2017-11-04T02:05:17.126Z,5.65
2017-11-04T02:06:22.486Z,5.65
2017-11-04T02:07:10.985Z,5.66
2017-11-04T02:08:11.208Z,5.66
2017-11-04T02:09:12.747Z,5.68
2017-11-04T02:10:12.377Z,5.69
2017-11-04T02:11:10.582Z,5.71
2017-11-04T02:12:11.372Z,5.72
2017-11-04T02:13:10.158Z,5.69
2017-11-04T02:14:10.303Z,5.71
2017-11-04T02:15:11.424Z,5.68
2017-11-04T02:16:10.989Z,5.68
2017-11-04T02:17:11.575Z,5.69
2017-11-04T02:18:10.760Z,5.72
2017-11-04T02:19:10.547Z,5.76
2017-11-04T02:20:11.120Z,5.73
2017-11-04T02:21:09.863Z,5.76
2017-11-04T02:22:11.189Z,5.76
2017-11-04T02:23:10.181Z,5.76
2017-11-04T02:24:10.617Z,5.75
2017-11-04T02:25:10.931Z,5.75
2017-11-04T02:26:10.913Z,5.75
2017-11-04T02:27:09.964Z,5.75
2017-11-04T02:28:09.868Z,5.75
2017-11-04T02:29:10.637Z,5.76
2017-11-04T02:30:10.511Z,5.80
2017-11-04T02:31:10.590Z,5.82
2017-11-04T02:32:11.199Z,5.86
2017-11-04T02:33:10.423Z,5.86
2017-11-04T02:34:10.349Z,5.84
2017-11-04T02:35:10.379Z,5.83
2017-11-04T02:36:10.627Z,5.80
2017-11-04T02:37:10.787Z,5.82
2017-11-04T02:38:11.072Z,5.82
2017-11-04T02:39:09.905Z,5.86
2017-11-04T02:40:10.823Z,5.83
2017-11-04T02:41:10.681Z,5.82
2017-11-04T02:42:10.659Z,5.80
2017-11-04T02:43:10.532Z,5.79
2017-11-04T02:44:10.753Z,5.76
2017-11-04T02:45:10.668Z,5.73
2017-11-04T02:46:11.034Z,5.72
2017-11-04T02:47:10.420Z,5.73
2017-11-04T02:48:10.007Z,5.72
2017-11-04T02:49:09.868Z,5.73
2017-11-04T02:50:11.130Z,5.72
2017-11-04T02:51:10.425Z,5.73
2017-11-04T02:52:10.490Z,5.75
2017-11-04T02:53:10.437Z,5.73
2017-11-04T02:54:10.716Z,5.72
2017-11-04T02:55:10.909Z,5.71
2017-11-04T02:56:11.347Z,5.69
2017-11-04T02:57:10.552Z,5.68
2017-11-04T02:58:10.435Z,5.68
2017-11-04T02:59:10.843Z,5.69
2017-11-04T03:00:11.108Z,5.69
2017-11-04T03:01:10.283Z,5.69
2017-11-04T03:02:10.706Z,5.68
2017-11-04T03:03:10.566Z,5.65
2017-11-04T03:04:10.845Z,5.65
2017-11-04T03:05:10.263Z,5.65
2017-11-04T03:06:10.138Z,5.65
2017-11-04T03:07:10.204Z,5.65
2017-11-04T03:08:11.420Z,5.65
2017-11-04T03:09:10.080Z,5.64
2017-11-04T03:10:09.893Z,5.64
2017-11-04T03:11:11.151Z,5.61
2017-11-04T03:12:10.140Z,5.61
2017-11-04T03:13:10.420Z,5.61
2017-11-04T03:14:10.228Z,5.57
2017-11-04T03:15:10.507Z,5.57
2017-11-04T03:16:10.121Z,5.54
2017-11-04T03:17:09.916Z,5.54
2017-11-04T03:18:10.171Z,5.53
2017-11-04T03:19:11.448Z,5.51
2017-11-04T03:20:10.508Z,5.48
2017-11-04T03:21:10.825Z,5.44
2017-11-04T03:22:11.054Z,5.43
2017-11-04T03:23:09.889Z,5.43
2017-11-04T03:24:09.948Z,5.44
2017-11-04T03:25:10.564Z,5.46
2017-11-04T03:26:10.449Z,5.46
2017-11-04T03:27:10.177Z,5.47
2017-11-04T03:28:10.120Z,5.47
2017-11-04T03:29:10.479Z,5.48
2017-11-04T03:30:11.079Z,5.50
2017-11-04T03:31:10.309Z,5.47
2017-11-04T03:32:10.324Z,5.47
2017-11-04T03:33:11.052Z,5.48
2017-11-04T03:34:10.397Z,5.47
2017-11-04T03:35:10.766Z,5.47
2017-11-04T03:36:11.326Z,5.47
2017-11-04T03:37:10.540Z,5.47
2017-11-04T03:38:11.110Z,5.48
2017-11-04T03:39:09.975Z,5.51
2017-11-04T03:40:10.996Z,5.50
2017-11-04T03:41:11.554Z,5.50
2017-11-04T03:42:10.640Z,5.50
2017-11-04T03:43:10.743Z,5.51
2017-11-04T03:44:10.897Z,5.53
2017-11-04T03:45:10.011Z,5.54
2017-11-04T03:46:10.112Z,5.53
2017-11-04T03:47:10.681Z,5.53
2017-11-04T03:48:10.529Z,5.53
2017-11-04T03:49:10.817Z,5.56
2017-11-04T03:50:10.715Z,5.57
2017-11-04T03:51:10.728Z,5.59
2017-11-04T03:52:11.286Z,5.59
2017-11-04T03:53:10.097Z,5.61
2017-11-04T03:54:10.037Z,5.64
2017-11-04T03:55:10.179Z,5.65
2017-11-04T03:56:10.515Z,5.65
2017-11-04T03:57:10.266Z,5.68
2017-11-04T03:58:10.885Z,5.68
2017-11-04T03:59:10.994Z,5.69
2017-11-04T04:00:09.901Z,5.72
2017-11-04T04:01:10.284Z,5.69
2017-11-04T04:02:10.030Z,5.71
2017-11-04T04:03:10.813Z,5.72
2017-11-04T04:04:11.097Z,5.73
2017-11-04T04:05:10.156Z,5.75
2017-11-04T04:06:10.353Z,5.71
2017-11-04T04:07:10.284Z,5.72
2017-11-04T04:08:10.655Z,5.75
2017-11-04T04:09:10.566Z,5.79
2017-11-04T04:10:10.475Z,5.79
2017-11-04T04:11:10.802Z,5.80
2017-11-04T04:12:10.845Z,5.80
2017-11-04T04:13:11.162Z,5.76
2017-11-04T04:14:10.880Z,5.76
2017-11-04T04:15:11.362Z,5.75
2017-11-04T04:16:10.251Z,5.73
2017-11-04T04:17:10.182Z,5.72
2017-11-04T04:18:10.522Z,5.69
2017-11-04T04:19:10.917Z,5.65
2017-11-04T04:20:10.716Z,5.64
2017-11-04T04:21:10.662Z,5.62
2017-11-04T04:22:10.573Z,5.61
2017-11-04T04:23:11.201Z,5.57
2017-11-04T04:24:10.322Z,5.54
2017-11-04T04:25:11.122Z,5.51
2017-11-04T04:26:10.448Z,5.50
2017-11-04T04:27:11.038Z,5.48
2017-11-04T04:28:09.844Z,5.48
2017-11-04T04:29:10.895Z,5.47
2017-11-04T04:30:11.519Z,5.46
2017-11-04T04:31:10.423Z,5.46
2017-11-04T04:32:10.689Z,5.46
2017-11-04T04:33:10.492Z,5.43
2017-11-04T04:34:10.284Z,5.41
2017-11-04T04:35:10.538Z,5.43
2017-11-04T04:36:11.445Z,5.43
2017-11-04T04:37:10.453Z,5.39
2017-11-04T04:38:10.690Z,5.39
2017-11-04T04:39:11.108Z,5.43
2017-11-04T04:40:10.330Z,5.46
2017-11-04T04:41:10.072Z,5.46
2017-11-04T04:42:11.161Z,5.47
2017-11-04T04:43:10.025Z,5.47
2017-11-04T04:44:11.143Z,5.48
2017-11-04T04:45:10.040Z,5.47
2017-11-04T04:46:10.136Z,5.47
2017-11-04T04:47:10.259Z,5.48
2017-11-04T04:48:11.251Z,5.50
2017-11-04T04:49:10.244Z,5.50
2017-11-04T04:50:11.169Z,5.53
2017-11-04T04:51:10.022Z,5.51
2017-11-04T04:52:10.710Z,5.50
2017-11-04T04:53:11.232Z,5.48
2017-11-04T04:54:10.033Z,5.48
2017-11-04T04:55:10.834Z,5.47
2017-11-04T04:56:10.562Z,5.44
2017-11-04T04:57:10.211Z,5.43
2017-11-04T04:58:10.315Z,5.41
2017-11-04T04:59:10.808Z,5.43
2017-11-04T05:00:10.526Z,5.41
2017-11-04T05:01:10.176Z,5.41
2017-11-04T05:02:09.834Z,5.38
2017-11-04T05:03:10.585Z,5.36
2017-11-04T05:04:10.748Z,5.35
2017-11-04T05:05:10.950Z,5.32
2017-11-04T05:06:11.025Z,5.30
2017-11-04T05:07:10.532Z,5.30
2017-11-04T05:08:10.629Z,5.28
2017-11-04T05:09:10.377Z,5.25
2017-11-04T05:10:10.308Z,5.25
2017-11-04T05:11:10.065Z,5.25
2017-11-04T05:12:10.821Z,5.20
2017-11-04T05:13:10.847Z,5.18
2017-11-04T05:14:10.607Z,5.15
2017-11-04T05:15:11.029Z,5.14
2017-11-04T05:16:09.913Z,5.12
2017-11-04T05:17:10.479Z,5.12
2017-11-04T05:18:10.146Z,5.10
2017-11-04T05:19:10.351Z,5.07
2017-11-04T05:20:10.152Z,5.04
2017-11-04T05:21:10.799Z,5.04
2017-11-04T05:22:10.914Z,5.04
2017-11-04T05:23:10.582Z,5.04
2017-11-04T05:24:10.330Z,5.02
2017-11-04T05:25:10.550Z,5.04
2017-11-04T05:26:10.710Z,5.07
2017-11-04T05:27:10.415Z,5.10
2017-11-04T05:28:10.144Z,5.10
2017-11-04T05:29:09.788Z,5.12
2017-11-04T05:30:10.655Z,5.14
2017-11-04T05:31:10.428Z,5.14
2017-11-04T05:32:11.089Z,5.14
2017-11-04T05:33:10.727Z,5.11
2017-11-04T05:34:10.875Z,5.12
2017-11-04T05:35:10.979Z,5.12
2017-11-04T05:36:11.015Z,5.12
2017-11-04T05:37:11.414Z,5.11
2017-11-04T05:38:10.184Z,5.12
2017-11-04T05:39:09.763Z,5.12
2017-11-04T05:40:10.975Z,5.12
2017-11-04T05:41:11.063Z,5.11
2017-11-04T05:42:10.984Z,5.11
2017-11-04T05:43:10.799Z,5.10
2017-11-04T05:44:10.803Z,5.10
2017-11-04T05:45:10.522Z,5.10
2017-11-04T05:46:10.279Z,5.08
2017-11-04T05:47:09.960Z,5.07
2017-11-04T05:48:11.090Z,5.07
2017-11-04T05:49:10.765Z,5.05
2017-11-04T05:50:10.952Z,5.04
2017-11-04T05:51:11.108Z,5.02
2017-11-04T05:52:10.881Z,5.00
2017-11-04T05:53:10.579Z,4.99
2017-11-04T05:54:11.149Z,4.97
2017-11-04T05:55:09.797Z,5.00
2017-11-04T05:56:10.879Z,4.99
2017-11-04T05:57:10.758Z,5.00
2017-11-04T05:58:10.743Z,5.04
2017-11-04T05:59:10.094Z,5.02
2017-11-04T06:00:10.638Z,5.02
2017-11-04T06:01:10.707Z,4.97
2017-11-04T06:02:10.452Z,5.00
2017-11-04T06:03:10.132Z,4.97
2017-11-04T06:04:10.437Z,4.94
2017-11-04T06:05:10.870Z,4.94
2017-11-04T06:06:11.084Z,4.93
2017-11-04T06:07:11.066Z,4.97
2017-11-04T06:08:10.411Z,4.96
2017-11-04T06:09:10.629Z,4.96
2017-11-04T06:10:10.997Z,4.96
2017-11-04T06:11:10.733Z,4.97
2017-11-04T06:12:10.501Z,4.97
2017-11-04T06:13:10.382Z,4.97
2017-11-04T06:14:10.131Z,4.96
2017-11-04T06:15:10.266Z,4.93
2017-11-04T06:16:10.366Z,4.93
2017-11-04T06:17:10.581Z,4.96
2017-11-04T06:18:10.361Z,4.99
2017-11-04T06:19:09.952Z,5.02
2017-11-04T06:20:10.442Z,5.02
2017-11-04T06:21:10.504Z,5.04
2017-11-04T06:22:10.802Z,5.02
2017-11-04T06:23:10.825Z,5.00
2017-11-04T06:24:10.975Z,5.05
2017-11-04T06:25:11.169Z,5.04
2017-11-04T06:26:10.757Z,5.04
2017-11-04T06:27:10.811Z,5.02
2017-11-04T06:28:10.676Z,5.04
2017-11-04T06:29:10.842Z,5.08
2017-11-04T06:30:10.750Z,5.08
2017-11-04T06:31:10.847Z,5.12
2017-11-04T06:32:11.216Z,5.11
2017-11-04T06:33:10.231Z,5.10
2017-11-04T06:34:10.414Z,5.10
2017-11-04T06:35:10.084Z,5.10
2017-11-04T06:36:10.032Z,5.10
2017-11-04T06:37:11.153Z,5.10
2017-11-04T06:38:10.326Z,5.08
2017-11-04T06:39:10.788Z,5.11
2017-11-04T06:40:11.020Z,5.12
2017-11-04T06:41:11.306Z,5.12
2017-11-04T06:42:10.653Z,5.17
2017-11-04T06:43:10.837Z,5.23
2017-11-04T06:44:10.409Z,5.26
2017-11-04T06:45:10.706Z,5.28
2017-11-04T06:46:10.820Z,5.28
2017-11-04T06:47:10.605Z,5.29
2017-11-04T06:48:10.494Z,5.29
2017-11-04T06:49:10.857Z,5.30
2017-11-04T06:50:10.291Z,5.30
2017-11-04T06:51:10.891Z,5.32
2017-11-04T06:52:11.246Z,5.35
2017-11-04T06:53:10.192Z,5.36
2017-11-04T06:54:10.573Z,5.38
2017-11-04T06:55:10.919Z,5.39
2017-11-04T06:56:11.329Z,5.41
2017-11-04T06:57:10.235Z,5.43
2017-11-04T06:58:10.478Z,5.41
2017-11-04T06:59:11.133Z,5.41
2017-11-04T07:00:10.877Z,5.43
2017-11-04T07:01:11.970Z,5.44
2017-11-04T07:02:11.545Z,5.44
2017-11-04T07:03:10.368Z,5.44
2017-11-04T07:04:11.054Z,5.46
2017-11-04T07:05:09.968Z,5.44
2017-11-04T07:06:11.417Z,5.47
2017-11-04T07:07:10.275Z,5.47
2017-11-04T07:08:10.093Z,5.46
2017-11-04T07:09:10.799Z,5.47
2017-11-04T07:10:10.740Z,5.50
2017-11-04T07:11:10.630Z,5.53
2017-11-04T07:12:11.160Z,5.54
2017-11-04T07:13:10.210Z,5.57
2017-11-04T07:14:10.590Z,5.61
2017-11-04T07:15:10.473Z,5.62
2017-11-04T07:16:10.845Z,5.65
2017-11-04T07:17:11.221Z,5.66
2017-11-04T07:18:10.133Z,5.66
2017-11-04T07:19:10.926Z,5.69
2017-11-04T07:20:10.721Z,5.72
2017-11-04T07:21:11.130Z,5.75
2017-11-04T07:22:10.095Z,5.75
2017-11-04T07:23:11.382Z,5.79
2017-11-04T07:24:10.806Z,5.80
2017-11-04T07:25:11.505Z,5.82
2017-11-04T07:26:10.401Z,5.84
2017-11-04T07:27:10.370Z,5.86
2017-11-04T07:28:10.299Z,5.89
2017-11-04T07:29:11.027Z,5.91
2017-11-04T07:30:10.875Z,5.91
2017-11-04T07:31:10.910Z,5.91
2017-11-04T07:32:10.844Z,5.93
2017-11-04T07:33:11.523Z,5.94
2017-11-04T07:34:11.067Z,5.98
2017-11-04T07:35:10.107Z,5.99
2017-11-04T07:36:10.105Z,6.04
2017-11-04T07:37:10.374Z,6.04
2017-11-04T07:38:10.068Z,6.05
2017-11-04T07:39:11.310Z,6.07
2017-11-04T07:40:10.709Z,6.09
2017-11-04T07:41:10.934Z,6.11
2017-11-04T07:42:10.925Z,6.12
2017-11-04T07:43:10.874Z,6.14
2017-11-04T07:44:10.255Z,6.16
2017-11-04T07:45:11.129Z,6.17
2017-11-04T07:46:10.929Z,6.17
2017-11-04T07:47:10.904Z,6.22
2017-11-04T07:48:10.084Z,6.22
2017-11-04T07:49:10.783Z,6.27
2017-11-04T07:50:10.387Z,6.28
2017-11-04T07:51:10.209Z,6.30
2017-11-04T07:52:10.536Z,6.35
2017-11-04T07:53:10.981Z,6.38
2017-11-04T07:54:11.357Z,6.42
2017-11-04T07:55:10.514Z,6.44
2017-11-04T07:56:11.016Z,6.48
2017-11-04T07:57:10.556Z,6.51
2017-11-04T07:58:11.135Z,6.57
2017-11-04T07:59:10.919Z,6.64
2017-11-04T08:00:10.555Z,6.78
2017-11-04T08:01:11.179Z,6.84
2017-11-04T08:02:10.228Z,6.93
2017-11-04T08:03:10.208Z,6.97
2017-11-04T08:04:10.497Z,7.06
2017-11-04T08:05:11.575Z,7.15
2017-11-04T08:06:10.246Z,7.20
2017-11-04T08:07:10.582Z,7.24
2017-11-04T08:08:10.439Z,7.28
2017-11-04T08:09:10.314Z,7.36
2017-11-04T08:10:10.770Z,7.45
2017-11-04T08:11:11.257Z,7.56
2017-11-04T08:12:10.259Z,7.63
2017-11-04T08:13:10.155Z,7.67
2017-11-04T08:14:10.500Z,7.67
2017-11-04T08:15:10.374Z,7.69
2017-11-04T08:16:10.285Z,7.75
2017-11-04T08:17:11.604Z,7.79
2017-11-04T08:18:10.852Z,7.88
2017-11-04T08:19:10.777Z,7.93
2017-11-04T08:20:11.223Z,8.00
2017-11-04T08:21:10.698Z,8.09
2017-11-04T08:22:11.397Z,8.06
2017-11-04T08:23:10.296Z,8.08
2017-11-04T08:24:10.879Z,8.03
2017-11-04T08:25:10.832Z,8.01
2017-11-04T08:26:11.257Z,7.98
2017-11-04T08:27:10.793Z,7.94
2017-11-04T08:28:11.580Z,7.91
2017-11-04T08:29:11.107Z,7.88
2017-11-04T08:30:10.428Z,7.87
2017-11-04T08:31:10.695Z,7.85
2017-11-04T08:32:11.069Z,7.90
2017-11-04T08:33:12.387Z,7.98
2017-11-04T08:34:10.900Z,8.06
2017-11-04T08:35:11.397Z,8.20
2017-11-04T08:36:10.828Z,8.28
2017-11-04T08:37:10.882Z,8.38
2017-11-04T08:38:10.215Z,8.48
2017-11-04T08:39:11.045Z,8.53
2017-11-04T08:40:11.007Z,8.64
2017-11-04T08:41:10.557Z,8.73
2017-11-04T08:42:10.615Z,8.82
2017-11-04T08:43:11.476Z,8.89
2017-11-04T08:44:11.371Z,8.95
2017-11-04T08:45:10.850Z,8.97
2017-11-04T08:46:11.344Z,8.97
2017-11-04T08:47:10.746Z,9.02
2017-11-04T08:48:11.138Z,9.02
2017-11-04T08:49:11.023Z,9.03
2017-11-04T08:50:11.616Z,9.03
2017-11-04T08:51:10.686Z,9.06
2017-11-04T08:52:10.763Z,9.10
2017-11-04T08:53:10.748Z,9.08
2017-11-04T08:54:13.156Z,9.10
2017-11-04T08:55:10.416Z,9.13
2017-11-04T08:56:10.943Z,9.13
2017-11-04T08:57:10.931Z,9.19
2017-11-04T08:58:11.363Z,9.22
2017-11-04T08:59:11.062Z,9.21
2017-11-04T09:00:11.920Z,9.22
2017-11-04T09:01:11.541Z,9.25
2017-11-04T09:02:10.542Z,9.32
2017-11-04T09:03:10.342Z,9.31
2017-11-04T09:04:11.377Z,9.34
2017-11-04T09:05:10.872Z,9.32
2017-11-04T09:06:11.733Z,9.46
2017-11-04T09:07:10.760Z,9.61
2017-11-04T09:08:11.238Z,9.66
2017-11-04T09:09:10.713Z,9.76
2017-11-04T09:10:11.231Z,9.80
2017-11-04T09:11:10.789Z,9.80
2017-11-04T09:12:11.075Z,9.73
2017-11-04T09:13:11.498Z,9.74
2017-11-04T09:14:10.666Z,9.68
2017-11-04T09:15:11.925Z,9.69
2017-11-04T09:16:10.905Z,9.73
2017-11-04T09:17:11.937Z,9.80
2017-11-04T09:18:11.370Z,9.89
2017-11-04T09:19:11.132Z,9.99
2017-11-04T09:20:10.511Z,10.10
2017-11-04T09:21:12.148Z,10.23
2017-11-04T09:22:10.820Z,10.33
2017-11-04T09:23:10.344Z,10.28
2017-11-04T09:24:10.344Z,10.19
2017-11-04T09:25:10.771Z,10.13
2017-11-04T09:26:10.863Z,10.20
2017-11-04T09:27:11.042Z,10.63
2017-11-04T09:28:10.968Z,11.72
2017-11-04T09:29:10.592Z,13.20
2017-11-04T09:30:10.855Z,13.74
2017-11-04T09:31:12.078Z,15.28
2017-11-04T09:32:10.426Z,16.38
2017-11-04T09:33:10.719Z,17.02
2017-11-04T09:34:10.762Z,17.42
2017-11-04T09:35:11.239Z,17.97
2017-11-04T09:36:10.903Z,18.33
2017-11-04T09:37:11.706Z,18.38
2017-11-04T09:38:11.718Z,18.38
2017-11-04T09:39:10.851Z,18.47
2017-11-04T09:40:10.741Z,18.68
2017-11-04T09:41:10.933Z,18.84
2017-11-04T09:42:11.471Z,19.27
2017-11-04T09:43:11.082Z,19.39
2017-11-04T09:44:11.915Z,19.18
2017-11-04T09:45:11.103Z,19.59
2017-11-04T09:46:10.688Z,19.91
2017-11-04T09:47:11.278Z,20.24
2017-11-04T09:48:10.535Z,20.52
2017-11-04T09:49:10.671Z,20.50
2017-11-04T09:50:11.308Z,20.43
2017-11-04T09:51:11.328Z,20.62
2017-11-04T09:52:10.407Z,20.92
2017-11-04T09:53:12.013Z,21.22
2017-11-04T09:54:10.856Z,20.92
2017-11-04T09:55:13.283Z,20.44
2017-11-04T09:56:11.111Z,19.63
2017-11-04T09:57:11.502Z,19.44
2017-11-04T09:58:11.486Z,19.74
2017-11-04T09:59:12.050Z,20.07
2017-11-04T10:00:10.835Z,20.21
2017-11-04T10:01:11.861Z,20.62
2017-11-04T10:02:12.587Z,20.85
2017-11-04T10:03:11.685Z,20.97
2017-11-04T10:04:11.129Z,20.70
2017-11-04T10:05:11.631Z,19.81
2017-11-04T10:06:11.692Z,18.90
2017-11-04T10:07:11.628Z,17.78
2017-11-04T10:08:10.743Z,17.34
2017-11-04T10:09:11.217Z,17.16
2017-11-04T10:10:10.417Z,17.19
2017-11-04T10:11:10.449Z,17.04
2017-11-04T10:12:10.515Z,16.56
2017-11-04T10:13:11.024Z,16.65
2017-11-04T10:14:11.106Z,17.06
2017-11-04T10:15:10.938Z,17.78
2017-11-04T10:16:12.089Z,18.50
2017-11-04T10:17:12.167Z,18.41
2017-11-04T10:18:10.909Z,18.55
2017-11-04T10:19:11.697Z,19.07
2017-11-04T10:20:11.177Z,19.59
2017-11-04T10:21:10.436Z,20.02
2017-11-04T10:22:10.558Z,20.39
2017-11-04T10:23:10.871Z,20.75
2017-11-04T10:24:12.207Z,20.43
2017-11-04T10:25:11.766Z,20.56
2017-11-04T10:26:11.302Z,20.97
2017-11-04T10:27:10.871Z,21.14
2017-11-04T10:28:16.259Z,21.25
2017-11-04T10:29:13.078Z,21.18
2017-11-04T10:30:10.710Z,21.20
2017-11-04T10:31:10.871Z,21.03
2017-11-04T10:32:12.523Z,21.40
2017-11-04T10:33:11.257Z,21.70
2017-11-04T10:34:12.374Z,21.85
2017-11-04T10:35:12.142Z,22.29
2017-11-04T10:36:11.762Z,22.45
2017-11-04T10:37:11.105Z,22.91
2017-11-04T10:38:10.591Z,23.25
2017-11-04T10:39:10.761Z,23.31
2017-11-04T10:40:11.367Z,23.00
2017-11-04T10:41:10.993Z,22.59
2017-11-04T10:42:11.640Z,22.83
2017-11-04T10:43:11.796Z,23.00
2017-11-04T10:44:11.130Z,23.06
2017-11-04T10:45:10.861Z,22.54
2017-11-04T10:46:11.622Z,22.65
2017-11-04T10:47:11.305Z,22.99
2017-11-04T10:48:11.024Z,23.43
2017-11-04T10:49:11.642Z,23.65
2017-11-04T10:50:11.653Z,23.88
2017-11-04T10:51:11.100Z,24.05
2017-11-04T10:52:11.139Z,24.28
2017-11-04T10:53:10.244Z,24.55
2017-11-04T10:54:10.974Z,24.86
2017-11-04T10:55:11.685Z,24.66
2017-11-04T10:56:11.023Z,24.45
2017-11-04T10:57:10.957Z,23.98
2017-11-04T10:58:11.115Z,24.39
2017-11-04T10:59:10.815Z,24.73
2017-11-04T11:00:11.376Z,24.69
2017-11-04T11:01:10.690Z,23.91
2017-11-04T11:02:12.244Z,23.25
2017-11-04T11:03:10.920Z,21.76
2017-11-04T11:04:11.824Z,20.47
2017-11-04T11:05:11.542Z,19.11
2017-11-04T11:06:11.841Z,18.63
2017-11-04T11:07:11.399Z,19.99
2017-11-04T11:08:10.799Z,19.36
2017-11-04T11:09:11.402Z,19.08
2017-11-04T11:10:11.862Z,18.92
2017-11-04T11:11:11.460Z,18.66
2017-11-04T11:12:11.733Z,18.45
2017-11-04T11:13:11.711Z,18.50
2017-11-04T11:14:11.011Z,20.34
2017-11-04T11:15:11.044Z,21.32
2017-11-04T11:16:10.620Z,22.14
2017-11-04T11:17:10.319Z,22.47
2017-11-04T11:18:11.553Z,21.58
2017-11-04T11:19:11.053Z,20.51
2017-11-04T11:20:10.254Z,20.39
2017-11-04T11:21:10.362Z,19.67
2017-11-04T11:22:10.627Z,18.96
2017-11-04T11:23:11.995Z,18.05
2017-11-04T11:24:12.607Z,18.18
2017-11-04T11:25:11.362Z,18.00
2017-11-04T11:26:10.517Z,17.85
2017-11-04T11:27:12.045Z,17.48
2017-11-04T11:28:10.538Z,17.22
2017-11-04T11:29:11.141Z,17.45
2017-11-04T11:30:11.165Z,17.42
2017-11-04T11:31:10.656Z,17.11
2017-11-04T11:32:11.095Z,17.20
2017-11-04T11:33:10.521Z,17.65
2017-11-04T11:34:11.071Z,18.33
2017-11-04T11:35:11.795Z,18.56
2017-11-04T11:36:10.844Z,19.19
2017-11-04T11:37:11.278Z,19.45
2017-11-04T11:38:10.590Z,20.22
2017-11-04T11:39:10.960Z,20.78
2017-11-04T11:40:11.945Z,20.67
2017-11-04T11:41:12.160Z,20.52
2017-11-04T11:42:10.757Z,20.84
2017-11-04T11:43:10.879Z,21.02
2017-11-04T11:44:11.165Z,21.02
2017-11-04T11:45:10.971Z,21.57
2017-11-04T11:46:11.592Z,21.73
2017-11-04T11:47:10.738Z,20.81
2017-11-04T11:48:11.273Z,21.12
2017-11-04T11:49:10.839Z,21.77
2017-11-04T11:50:11.380Z,21.57
2017-11-04T11:51:10.981Z,20.36
2017-11-04T11:52:13.001Z,19.89
2017-11-04T11:53:12.099Z,19.66
2017-11-04T11:54:12.346Z,19.22
2017-11-04T11:55:11.134Z,18.98
2017-11-04T11:56:10.968Z,18.56
2017-11-04T11:57:10.770Z,17.86
2017-11-04T11:58:11.860Z,17.15
2017-11-04T11:59:10.939Z,16.61
2017-11-04T12:00:10.773Z,16.24
2017-11-04T12:01:10.724Z,16.02
2017-11-04T12:02:10.718Z,15.86
2017-11-04T12:03:10.856Z,15.79
2017-11-04T12:04:11.730Z,15.79
2017-11-04T12:05:11.498Z,15.75
2017-11-04T12:06:10.848Z,15.64
2017-11-04T12:07:11.514Z,15.42
2017-11-04T12:08:10.687Z,15.37
2017-11-04T12:09:11.122Z,15.27
2017-11-04T12:10:11.113Z,15.21
2017-11-04T12:11:10.893Z,15.02
2017-11-04T12:12:11.582Z,14.72
2017-11-04T12:13:11.686Z,14.68
2017-11-04T12:14:11.894Z,14.70
2017-11-04T12:15:11.246Z,14.70
2017-11-04T12:16:10.778Z,14.86
2017-11-04T12:17:12.891Z,15.04
2017-11-04T12:18:11.273Z,15.28
2017-11-04T12:19:10.611Z,15.80
2017-11-04T12:20:11.562Z,16.49
2017-11-04T12:21:11.217Z,16.57
2017-11-04T12:22:10.812Z,16.35
2017-11-04T12:23:10.995Z,16.26
2017-11-04T12:24:10.285Z,16.31
2017-11-04T12:25:11.201Z,16.39
2017-11-04T12:26:12.593Z,16.91
2017-11-04T12:27:10.733Z,17.65
2017-11-04T12:28:12.039Z,18.20
2017-11-04T12:29:11.461Z,19.22
2017-11-04T12:30:11.103Z,19.48
2017-11-04T12:31:10.236Z,18.90
2017-11-04T12:32:10.873Z,18.18
2017-11-04T12:33:10.913Z,17.86
2017-11-04T12:34:11.208Z,17.23
2017-11-04T12:35:11.826Z,17.79
2017-11-04T12:36:11.353Z,17.22
2017-11-04T12:37:11.674Z,16.79
2017-11-04T12:38:10.901Z,16.39
2017-11-04T12:39:13.132Z,16.90
2017-11-04T12:40:10.790Z,17.04
2017-11-04T12:41:12.366Z,17.16
2017-11-04T12:42:11.032Z,17.85
2017-11-04T12:43:11.631Z,17.59
2017-11-04T12:44:11.043Z,18.11
2017-11-04T12:45:10.768Z,17.54
2017-11-04T12:46:10.923Z,17.41
2017-11-04T12:47:12.191Z,17.33
2017-11-04T12:48:11.493Z,18.03
2017-11-04T12:49:11.242Z,18.99
2017-11-04T12:50:10.819Z,19.31
2017-11-04T12:51:10.868Z,19.66
2017-11-04T12:52:10.991Z,19.69
2017-11-04T12:53:10.160Z,19.79
2017-11-04T12:54:10.535Z,19.77
2017-11-04T12:55:10.740Z,19.51
2017-11-04T12:56:10.895Z,18.44
2017-11-04T12:57:10.843Z,18.78
2017-11-04T12:58:11.274Z,19.00
2017-11-04T12:59:11.211Z,19.27
2017-11-04T13:00:11.768Z,19.49
2017-11-04T13:01:11.605Z,19.73
2017-11-04T13:02:11.033Z,19.14
2017-11-04T13:03:12.177Z,18.86
2017-11-04T13:04:10.280Z,18.41
2017-11-04T13:05:11.055Z,18.86
2017-11-04T13:06:11.322Z,18.41
2017-11-04T13:07:10.548Z,17.68
2017-11-04T13:08:11.501Z,17.34
2017-11-04T13:09:11.100Z,16.84
2017-11-04T13:10:11.562Z,16.58